sensor_id;sensor_type;location;lat;lon;timestamp;pressure;altitude;pressure_sealevel;temperature;humidity
71057;BME280;58380;48.312;9.246;2023-01-25T07:44:21;94701.03;;;-2.19;100.00
71057;BME280;58380;48.312;9.246;2023-01-25T07:46:47;94667.97;;;-2.33;100.00
71057;BME280;58380;48.312;9.246;2023-01-25T07:49:12;94702.50;;;-2.17;100.00
71057;BME280;58380;48.312;9.246;2023-01-25T07:51:37;94685.19;;;-2.16;100.00
71057;BME280;58380;48.312;9.246;2023-01-25T07:54:03;94690.41;;;-2.08;100.00
71057;BME280;58380;48.312;9.246;2023-01-25T07:56:32;94686.25;;;-2.01;100.00
71057;BME280;58380;48.312;9.246;2023-01-25T07:58:59;94644.72;;;-2.25;100.00
71057;BME280;58380;48.312;9.246;2023-01-25T08:01:30;94676.69;;;-2.00;100.00
71057;BME280;58380;48.312;9.246;2023-01-25T08:03:58;94689.97;;;-1.95;100.00
71057;BME280;58380;48.312;9.246;2023-01-25T08:06:27;94685.66;;;-1.86;100.00
71057;BME280;58380;48.312;9.246;2023-01-25T08:09:14;94658.59;;;-2.00;100.00
71057;BME280;58380;48.312;9.246;2023-01-25T08:11:45;94652.16;;;-1.96;100.00
71057;BME280;58380;48.312;9.246;2023-01-25T08:14:11;94670.50;;;-1.81;100.00
71057;BME280;58380;48.312;9.246;2023-01-25T08:16:37;94649.25;;;-1.93;100.00
71057;BME280;58380;48.312;9.246;2023-01-25T08:19:03;94656.19;;;-1.93;100.00
71057;BME280;58380;48.312;9.246;2023-01-25T08:21:31;94659.16;;;-1.80;100.00
71057;BME280;58380;48.312;9.246;2023-01-25T08:23:59;94668.25;;;-1.68;100.00
71057;BME280;58380;48.312;9.246;2023-01-25T08:26:26;94679.41;;;-1.67;100.00
71057;BME280;58380;48.312;9.246;2023-01-25T08:28:53;94617.84;;;-2.06;100.00
71057;BME280;58380;48.312;9.246;2023-01-25T08:31:21;94668.59;;;-1.63;100.00
71057;BME280;58380;48.312;9.246;2023-01-25T08:33:55;94625.34;;;-1.87;100.00
71057;BME280;58380;48.312;9.246;2023-01-25T08:36:22;94665.88;;;-1.45;100.00
71057;BME280;58380;48.312;9.246;2023-01-25T08:38:57;94658.75;;;-1.59;100.00
71057;BME280;58380;48.312;9.246;2023-01-25T08:41:27;94649.47;;;-1.70;100.00
71057;BME280;58380;48.312;9.246;2023-01-25T08:43:55;94640.28;;;-1.64;100.00
71057;BME280;58380;48.312;9.246;2023-01-25T08:46:22;94623.13;;;-1.65;100.00
71057;BME280;58380;48.312;9.246;2023-01-25T08:48:53;94634.13;;;-1.63;100.00
71057;BME280;58380;48.312;9.246;2023-01-25T08:51:20;94641.63;;;-1.52;100.00
71057;BME280;58380;48.312;9.246;2023-01-25T08:53:46;94603.72;;;-1.69;100.00
71057;BME280;58380;48.312;9.246;2023-01-25T08:56:13;94622.34;;;-1.58;100.00
71057;BME280;58380;48.312;9.246;2023-01-25T08:58:43;94626.09;;;-1.44;100.00
71057;BME280;58380;48.312;9.246;2023-01-25T09:01:11;94566.81;;;-1.80;100.00
71057;BME280;58380;48.312;9.246;2023-01-25T09:03:40;94613.78;;;-1.50;100.00
71057;BME280;58380;48.312;9.246;2023-01-25T09:06:09;94636.47;;;-1.44;100.00
71057;BME280;58380;48.312;9.246;2023-01-25T09:08:35;94611.34;;;-1.60;100.00
71057;BME280;58380;48.312;9.246;2023-01-25T09:11:06;94573.28;;;-1.84;100.00
71057;BME280;58380;48.312;9.246;2023-01-25T09:13:34;94647.16;;;-1.39;100.00
71057;BME280;58380;48.312;9.246;2023-01-25T09:16:05;94637.31;;;-1.27;100.00
71057;BME280;58380;48.312;9.246;2023-01-25T09:18:35;94600.81;;;-1.50;100.00
71057;BME280;58380;48.312;9.246;2023-01-25T09:21:10;94607.66;;;-1.41;100.00
71057;BME280;58380;48.312;9.246;2023-01-25T09:23:37;94598.88;;;-1.48;100.00
71057;BME280;58380;48.312;9.246;2023-01-25T09:26:04;94620.59;;;-1.41;100.00
71057;BME280;58380;48.312;9.246;2023-01-25T09:28:30;94645.88;;;-1.26;100.00
71057;BME280;58380;48.312;9.246;2023-01-25T09:31:02;94570.22;;;-1.71;100.00
71057;BME280;58380;48.312;9.246;2023-01-25T09:33:33;94626.75;;;-1.34;100.00
71057;BME280;58380;48.312;9.246;2023-01-25T09:36:01;94639.38;;;-1.22;100.00
71057;BME280;58380;48.312;9.246;2023-01-25T09:38:28;94648.63;;;-1.28;100.00
71057;BME280;58380;48.312;9.246;2023-01-25T09:46:40;94640.69;;;-1.26;100.00
71057;BME280;58380;48.312;9.246;2023-01-25T09:55:27;94630.66;;;-1.21;100.00
71057;BME280;58380;48.312;9.246;2023-01-25T09:57:56;94649.28;;;-1.10;100.00
71057;BME280;58380;48.312;9.246;2023-01-25T10:00:33;94622.22;;;-1.32;100.00
71057;BME280;58380;48.312;9.246;2023-01-25T10:05:55;94632.91;;;-1.10;100.00
71057;BME280;58380;48.312;9.246;2023-01-25T10:08:30;94598.78;;;-1.22;100.00
71057;BME280;58380;48.312;9.246;2023-01-25T10:11:26;94573.31;;;-1.43;100.00
71057;BME280;58380;48.312;9.246;2023-01-25T10:13:55;94632.09;;;-1.02;100.00
71057;BME280;58380;48.312;9.246;2023-01-25T10:16:42;94596.19;;;-1.22;100.00
71057;BME280;58380;48.312;9.246;2023-01-25T10:19:33;94611.88;;;-0.99;100.00
71057;BME280;58380;48.312;9.246;2023-01-25T10:22:20;94628.75;;;-0.95;100.00
71057;BME280;58380;48.312;9.246;2023-01-25T10:30:34;94612.19;;;-1.18;100.00
71057;BME280;58380;48.312;9.246;2023-01-25T10:33:17;94556.19;;;-1.44;100.00
71057;BME280;58380;48.312;9.246;2023-01-25T10:35:46;94609.91;;;-1.05;100.00
71057;BME280;58380;48.312;9.246;2023-01-25T10:38:33;94603.47;;;-1.01;100.00
71057;BME280;58380;48.312;9.246;2023-01-25T10:41:08;94598.13;;;-0.99;100.00
71057;BME280;58380;48.312;9.246;2023-01-25T10:43:56;94588.25;;;-1.04;100.00
71057;BME280;58380;48.312;9.246;2023-01-25T10:49:27;94578.03;;;-0.97;100.00
71057;BME280;58380;48.312;9.246;2023-01-25T10:52:24;94581.59;;;-1.06;100.00
71057;BME280;58380;48.312;9.246;2023-01-25T10:55:16;94573.84;;;-1.15;100.00
71057;BME280;58380;48.312;9.246;2023-01-25T10:57:44;94574.47;;;-1.21;100.00
71057;BME280;58380;48.312;9.246;2023-01-25T11:02:58;94547.28;;;-1.41;100.00
71057;BME280;58380;48.312;9.246;2023-01-25T11:08:23;94587.59;;;-1.14;100.00
71057;BME280;58380;48.312;9.246;2023-01-25T11:11:36;94582.38;;;-0.98;100.00
71057;BME280;58380;48.312;9.246;2023-01-25T11:14:16;94568.66;;;-1.15;100.00
71057;BME280;58380;48.312;9.246;2023-01-25T11:16:45;94566.38;;;-1.10;100.00
71057;BME280;58380;48.312;9.246;2023-01-25T11:19:24;94538.53;;;-1.16;100.00
71057;BME280;58380;48.312;9.246;2023-01-25T11:21:59;94575.59;;;-0.99;100.00
71057;BME280;58380;48.312;9.246;2023-01-25T11:24:33;94580.94;;;-0.92;100.00
71057;BME280;58380;48.312;9.246;2023-01-25T11:27:21;94563.94;;;-0.87;100.00
71057;BME280;58380;48.312;9.246;2023-01-25T11:30:09;94570.84;;;-0.71;100.00
71057;BME280;58380;48.312;9.246;2023-01-25T11:32:40;94561.28;;;-0.62;100.00
71057;BME280;58380;48.312;9.246;2023-01-25T11:35:14;94528.41;;;-0.78;100.00
71057;BME280;58380;48.312;9.246;2023-01-25T11:38:08;94527.16;;;-0.82;100.00
71057;BME280;58380;48.312;9.246;2023-01-25T11:40:42;94553.69;;;-0.72;100.00
71057;BME280;58380;48.312;9.246;2023-01-25T11:46:22;94514.06;;;-1.05;100.00
71057;BME280;58380;48.312;9.246;2023-01-25T11:57:52;94485.41;;;-1.03;100.00
71057;BME280;58380;48.312;9.246;2023-01-25T12:00:47;94492.44;;;-0.73;100.00
71057;BME280;58380;48.312;9.246;2023-01-25T12:04:02;94517.75;;;-0.75;100.00
71057;BME280;58380;48.312;9.246;2023-01-25T12:06:58;94496.41;;;-1.18;100.00
71057;BME280;58380;48.312;9.246;2023-01-25T12:15:39;94509.06;;;-1.31;100.00
71057;BME280;58380;48.312;9.246;2023-01-25T12:18:38;94472.84;;;-1.39;100.00
71057;BME280;58380;48.312;9.246;2023-01-25T12:21:44;94492.72;;;-1.07;100.00
71057;BME280;58380;48.312;9.246;2023-01-25T12:27:44;94469.97;;;-0.89;100.00
71057;BME280;58380;48.312;9.246;2023-01-25T12:33:30;94469.09;;;-0.73;100.00
71057;BME280;58380;48.312;9.246;2023-01-25T12:50:02;94422.13;;;-0.78;100.00
71057;BME280;58380;48.312;9.246;2023-01-25T12:53:05;94417.16;;;-0.79;100.00
71057;BME280;58380;48.312;9.246;2023-01-25T12:55:42;94382.53;;;-0.95;100.00
71057;BME280;58380;48.312;9.246;2023-01-25T12:58:28;94414.66;;;-0.73;100.00
71057;BME280;58380;48.312;9.246;2023-01-25T13:01:19;94384.41;;;-0.80;100.00
71057;BME280;58380;48.312;9.246;2023-01-25T13:07:33;94405.44;;;-0.67;100.00
71057;BME280;58380;48.312;9.246;2023-01-25T13:10:15;94388.06;;;-0.67;100.00
71057;BME280;58380;48.312;9.246;2023-01-25T13:12:52;94355.44;;;-0.84;100.00
71057;BME280;58380;48.312;9.246;2023-01-25T13:15:41;94380.81;;;-0.71;100.00
71057;BME280;58380;48.312;9.246;2023-01-25T13:20:51;94368.56;;;-0.85;100.00
71057;BME280;58380;48.312;9.246;2023-01-25T13:23:33;94346.13;;;-1.01;100.00
71057;BME280;58380;48.312;9.246;2023-01-25T13:28:55;94353.63;;;-1.15;100.00
71057;BME280;58380;48.312;9.246;2023-01-25T13:34:11;94380.75;;;-0.94;100.00
71057;BME280;58380;48.312;9.246;2023-01-25T13:36:57;94306.13;;;-1.38;100.00
71057;BME280;58380;48.312;9.246;2023-01-25T13:42:23;94345.44;;;-1.35;100.00
71057;BME280;58380;48.312;9.246;2023-01-25T13:44:54;94291.03;;;-1.74;100.00
71057;BME280;58380;48.312;9.246;2023-01-25T13:47:34;94301.19;;;-1.64;100.00
71057;BME280;58380;48.312;9.246;2023-01-25T13:52:39;94356.72;;;-1.19;100.00
71057;BME280;58380;48.312;9.246;2023-01-25T13:55:44;94342.63;;;-1.25;100.00
71057;BME280;58380;48.312;9.246;2023-01-25T13:58:22;94362.03;;;-1.13;100.00
71057;BME280;58380;48.312;9.246;2023-01-25T14:00:54;94341.78;;;-1.09;100.00
71057;BME280;58380;48.312;9.246;2023-01-25T14:03:43;94336.59;;;-1.09;100.00
71057;BME280;58380;48.312;9.246;2023-01-25T14:06:23;94361.28;;;-0.90;100.00
71057;BME280;58380;48.312;9.246;2023-01-25T14:08:52;94373.09;;;-0.88;100.00
71057;BME280;58380;48.312;9.246;2023-01-25T14:11:22;94326.63;;;-1.28;100.00
71057;BME280;58380;48.312;9.246;2023-01-25T14:13:57;94366.88;;;-1.10;100.00
71057;BME280;58380;48.312;9.246;2023-01-25T14:16:43;94325.56;;;-1.50;100.00
71057;BME280;58380;48.312;9.246;2023-01-25T14:19:26;94373.88;;;-1.18;100.00
71057;BME280;58380;48.312;9.246;2023-01-25T14:25:03;94339.13;;;-1.32;100.00
71057;BME280;58380;48.312;9.246;2023-01-25T14:27:50;94354.44;;;-1.22;100.00
71057;BME280;58380;48.312;9.246;2023-01-25T14:30:28;94354.94;;;-1.19;100.00
71057;BME280;58380;48.312;9.246;2023-01-25T14:32:58;94326.00;;;-1.31;100.00
71057;BME280;58380;48.312;9.246;2023-01-25T14:37:51;94246.41;;;-1.84;100.00
71057;BME280;58380;48.312;9.246;2023-01-25T14:40:19;94324.38;;;-1.32;100.00
71057;BME280;58380;48.312;9.246;2023-01-25T14:42:48;94331.00;;;-1.29;100.00
71057;BME280;58380;48.312;9.246;2023-01-25T14:45:15;94307.75;;;-1.37;100.00
71057;BME280;58380;48.312;9.246;2023-01-25T14:47:41;94339.34;;;-1.11;100.00
71057;BME280;58380;48.312;9.246;2023-01-25T14:53:15;94335.84;;;-1.26;100.00
71057;BME280;58380;48.312;9.246;2023-01-25T14:55:46;94296.75;;;-1.47;100.00
71057;BME280;58380;48.312;9.246;2023-01-25T14:58:16;94304.03;;;-1.43;100.00
71057;BME280;58380;48.312;9.246;2023-01-25T15:00:52;94307.44;;;-1.50;100.00
71057;BME280;58380;48.312;9.246;2023-01-25T15:03:22;94324.44;;;-1.48;100.00
71057;BME280;58380;48.312;9.246;2023-01-25T15:05:51;94333.72;;;-1.62;100.00
71057;BME280;58380;48.312;9.246;2023-01-25T15:08:36;94332.88;;;-1.62;100.00
71057;BME280;58380;48.312;9.246;2023-01-25T15:11:03;94330.81;;;-1.75;100.00
71057;BME280;58380;48.312;9.246;2023-01-25T15:13:48;94325.31;;;-1.72;100.00
71057;BME280;58380;48.312;9.246;2023-01-25T15:16:34;94325.63;;;-1.67;100.00
71057;BME280;58380;48.312;9.246;2023-01-25T15:19:00;94325.28;;;-1.64;100.00
71057;BME280;58380;48.312;9.246;2023-01-25T15:21:30;94313.19;;;-1.71;100.00
71057;BME280;58380;48.312;9.246;2023-01-25T15:24:01;94284.13;;;-2.06;100.00
71057;BME280;58380;48.312;9.246;2023-01-25T15:26:35;94311.75;;;-1.90;100.00
71057;BME280;58380;48.312;9.246;2023-01-25T15:29:06;94278.78;;;-2.05;100.00
71057;BME280;58380;48.312;9.246;2023-01-25T15:31:39;94319.00;;;-1.69;100.00
71057;BME280;58380;48.312;9.246;2023-01-25T15:34:14;94317.88;;;-1.67;100.00
71057;BME280;58380;48.312;9.246;2023-01-25T15:36:42;94280.25;;;-1.94;100.00
71057;BME280;58380;48.312;9.246;2023-01-25T15:39:13;94288.81;;;-1.93;100.00
71057;BME280;58380;48.312;9.246;2023-01-25T15:41:40;94241.66;;;-2.28;100.00
71057;BME280;58380;48.312;9.246;2023-01-25T15:44:07;94285.78;;;-2.22;100.00
71057;BME280;58380;48.312;9.246;2023-01-25T15:46:32;94269.28;;;-2.21;100.00
71057;BME280;58380;48.312;9.246;2023-01-25T15:49:00;94284.94;;;-2.06;100.00
71057;BME280;58380;48.312;9.246;2023-01-25T15:51:27;94270.91;;;-2.20;100.00
71057;BME280;58380;48.312;9.246;2023-01-25T15:53:53;94255.53;;;-2.21;100.00
71057;BME280;58380;48.312;9.246;2023-01-25T15:56:23;94281.53;;;-1.98;100.00
71057;BME280;58380;48.312;9.246;2023-01-25T15:58:54;94268.28;;;-2.03;100.00
71057;BME280;58380;48.312;9.246;2023-01-25T16:01:24;94269.88;;;-2.02;100.00
71057;BME280;58380;48.312;9.246;2023-01-25T16:03:52;94262.78;;;-2.00;100.00
71057;BME280;58380;48.312;9.246;2023-01-25T16:06:39;94242.63;;;-2.29;100.00
71057;BME280;58380;48.312;9.246;2023-01-25T16:11:53;94265.84;;;-2.05;100.00
71057;BME280;58380;48.312;9.246;2023-01-25T16:14:20;94273.78;;;-2.23;100.00
71057;BME280;58380;48.312;9.246;2023-01-25T16:16:49;94251.81;;;-2.35;100.00
71057;BME280;58380;48.312;9.246;2023-01-25T16:19:19;94268.50;;;-2.29;100.00
71057;BME280;58380;48.312;9.246;2023-01-25T16:21:47;94234.88;;;-2.46;100.00
71057;BME280;58380;48.312;9.246;2023-01-25T16:24:13;94259.91;;;-2.30;100.00
71057;BME280;58380;48.312;9.246;2023-01-25T16:26:49;94144.31;;;-3.01;100.00
71057;BME280;58380;48.312;9.246;2023-01-25T16:29:18;94240.22;;;-2.39;100.00
71057;BME280;58380;48.312;9.246;2023-01-25T16:31:43;94252.81;;;-2.44;100.00
71057;BME280;58380;48.312;9.246;2023-01-25T16:34:08;94163.69;;;-2.97;100.00
71057;BME280;58380;48.312;9.246;2023-01-25T16:36:34;94216.81;;;-2.62;100.00
71057;BME280;58380;48.312;9.246;2023-01-25T16:39:18;94253.47;;;-2.34;100.00
71057;BME280;58380;48.312;9.246;2023-01-25T16:41:48;94187.25;;;-2.59;100.00
71057;BME280;58380;48.312;9.246;2023-01-25T16:44:14;94251.81;;;-2.19;100.00
71057;BME280;58380;48.312;9.246;2023-01-25T16:46:39;94207.72;;;-2.50;100.00
71057;BME280;58380;48.312;9.246;2023-01-25T16:49:05;94202.09;;;-2.53;100.00
71057;BME280;58380;48.312;9.246;2023-01-25T16:51:35;94244.09;;;-2.27;100.00
71057;BME280;58380;48.312;9.246;2023-01-25T16:54:01;94227.47;;;-2.49;100.00
71057;BME280;58380;48.312;9.246;2023-01-25T16:56:30;94214.38;;;-2.55;100.00
71057;BME280;58380;48.312;9.246;2023-01-25T16:59:00;94202.59;;;-2.74;100.00
71057;BME280;58380;48.312;9.246;2023-01-25T17:01:27;94121.88;;;-3.34;100.00
71057;BME280;58380;48.312;9.246;2023-01-25T17:03:54;94203.88;;;-2.78;100.00
71057;BME280;58380;48.312;9.246;2023-01-25T17:06:28;94199.03;;;-2.73;100.00
71057;BME280;58380;48.312;9.246;2023-01-25T17:08:57;94232.47;;;-2.55;100.00
71057;BME280;58380;48.312;9.246;2023-01-25T17:11:24;94199.53;;;-2.62;100.00
71057;BME280;58380;48.312;9.246;2023-01-25T17:13:52;94194.03;;;-2.58;100.00
71057;BME280;58380;48.312;9.246;2023-01-25T17:16:19;94154.81;;;-2.87;100.00
71057;BME280;58380;48.312;9.246;2023-01-25T17:18:46;94219.22;;;-2.44;100.00
71057;BME280;58380;48.312;9.246;2023-01-25T17:21:13;94163.03;;;-2.75;100.00
71057;BME280;58380;48.312;9.246;2023-01-25T17:23:39;94218.88;;;-2.41;100.00
71057;BME280;58380;48.312;9.246;2023-01-25T17:26:11;94224.41;;;-2.44;100.00
71057;BME280;58380;48.312;9.246;2023-01-25T17:28:38;94210.97;;;-2.48;100.00
71057;BME280;58380;48.312;9.246;2023-01-25T17:31:15;94193.34;;;-2.52;100.00
71057;BME280;58380;48.312;9.246;2023-01-25T17:33:47;94189.50;;;-2.48;100.00
71057;BME280;58380;48.312;9.246;2023-01-25T17:36:13;94194.63;;;-2.40;100.00
71057;BME280;58380;48.312;9.246;2023-01-25T17:38:40;94199.50;;;-2.37;100.00
71057;BME280;58380;48.312;9.246;2023-01-25T17:41:07;94200.94;;;-2.26;100.00
71057;BME280;58380;48.312;9.246;2023-01-25T17:43:34;94205.94;;;-2.33;100.00
71057;BME280;58380;48.312;9.246;2023-01-25T17:46:12;94199.81;;;-2.32;100.00
71057;BME280;58380;48.312;9.246;2023-01-25T17:48:39;94157.38;;;-2.70;100.00
71057;BME280;58380;48.312;9.246;2023-01-25T17:51:05;94195.47;;;-2.48;100.00
71057;BME280;58380;48.312;9.246;2023-01-25T17:53:31;94177.22;;;-2.63;100.00
71057;BME280;58380;48.312;9.246;2023-01-25T17:56:01;94196.16;;;-2.62;100.00
71057;BME280;58380;48.312;9.246;2023-01-25T17:58:29;94196.94;;;-2.70;100.00
71057;BME280;58380;48.312;9.246;2023-01-25T18:00:55;94183.06;;;-2.85;100.00
71057;BME280;58380;48.312;9.246;2023-01-25T18:03:21;94139.47;;;-3.13;100.00
71057;BME280;58380;48.312;9.246;2023-01-25T18:05:46;94135.44;;;-3.07;100.00
71057;BME280;58380;48.312;9.246;2023-01-25T18:08:12;94149.97;;;-2.98;100.00
71057;BME280;58380;48.312;9.246;2023-01-25T18:10:38;94180.81;;;-2.72;100.00
71057;BME280;58380;48.312;9.246;2023-01-25T18:13:04;94139.63;;;-2.90;100.00
71057;BME280;58380;48.312;9.246;2023-01-25T18:15:30;94154.13;;;-2.72;100.00
71057;BME280;58380;48.312;9.246;2023-01-25T18:17:56;94170.28;;;-2.54;100.00
71057;BME280;58380;48.312;9.246;2023-01-25T18:20:24;94129.31;;;-2.82;100.00
71057;BME280;58380;48.312;9.246;2023-01-25T18:22:50;94098.31;;;-2.98;100.00
71057;BME280;58380;48.312;9.246;2023-01-25T18:27:57;94148.47;;;-2.51;100.00
71057;BME280;58380;48.312;9.246;2023-01-25T18:30:33;94156.03;;;-2.42;100.00
71057;BME280;58380;48.312;9.246;2023-01-25T18:33:01;94116.34;;;-2.65;100.00
71057;BME280;58380;48.312;9.246;2023-01-25T18:35:28;94143.31;;;-2.51;100.00
71057;BME280;58380;48.312;9.246;2023-01-25T18:37:54;94111.03;;;-2.72;100.00
71057;BME280;58380;48.312;9.246;2023-01-25T18:40:19;94137.97;;;-2.58;100.00
71057;BME280;58380;48.312;9.246;2023-01-25T18:42:45;94111.69;;;-2.78;100.00
71057;BME280;58380;48.312;9.246;2023-01-25T18:45:11;94118.78;;;-2.72;100.00
71057;BME280;58380;48.312;9.246;2023-01-25T18:47:38;94109.44;;;-2.81;100.00
71057;BME280;58380;48.312;9.246;2023-01-25T18:50:05;94162.22;;;-2.59;100.00
71057;BME280;58380;48.312;9.246;2023-01-25T18:52:33;94085.41;;;-3.06;100.00
71057;BME280;58380;48.312;9.246;2023-01-25T18:54:59;94066.84;;;-3.18;100.00
71057;BME280;58380;48.312;9.246;2023-01-25T18:57:25;94139.63;;;-2.73;100.00
71057;BME280;58380;48.312;9.246;2023-01-25T18:59:51;94138.97;;;-2.84;100.00
71057;BME280;58380;48.312;9.246;2023-01-25T19:02:17;94075.25;;;-3.24;100.00
71057;BME280;58380;48.312;9.246;2023-01-25T19:04:43;94129.00;;;-2.87;100.00
71057;BME280;58380;48.312;9.246;2023-01-25T19:07:10;94119.63;;;-2.79;100.00
71057;BME280;58380;48.312;9.246;2023-01-25T19:09:36;94103.31;;;-2.88;100.00
71057;BME280;58380;48.312;9.246;2023-01-25T19:12:03;94084.56;;;-2.90;100.00
71057;BME280;58380;48.312;9.246;2023-01-25T19:14:29;94057.66;;;-3.12;100.00
71057;BME280;58380;48.312;9.246;2023-01-25T19:16:54;94064.75;;;-3.06;100.00
71057;BME280;58380;48.312;9.246;2023-01-25T19:19:20;94076.38;;;-3.10;100.00
71057;BME280;58380;48.312;9.246;2023-01-25T19:21:46;94115.72;;;-2.84;100.00
71057;BME280;58380;48.312;9.246;2023-01-25T19:24:13;94077.47;;;-3.05;100.00
71057;BME280;58380;48.312;9.246;2023-01-25T19:26:40;94113.47;;;-2.87;100.00
71057;BME280;58380;48.312;9.246;2023-01-25T19:29:07;94108.31;;;-2.95;100.00
71057;BME280;58380;48.312;9.246;2023-01-25T19:31:32;94111.69;;;-2.86;100.00
71057;BME280;58380;48.312;9.246;2023-01-25T19:34:03;94105.88;;;-2.80;100.00
71057;BME280;58380;48.312;9.246;2023-01-25T19:36:32;94077.66;;;-2.98;100.00
71057;BME280;58380;48.312;9.246;2023-01-25T19:39:00;94012.69;;;-3.34;100.00
71057;BME280;58380;48.312;9.246;2023-01-25T19:41:28;94098.44;;;-2.75;100.00
71057;BME280;58380;48.312;9.246;2023-01-25T19:43:59;94038.44;;;-3.01;100.00
71057;BME280;58380;48.312;9.246;2023-01-25T19:46:27;94096.34;;;-2.71;100.00
71057;BME280;58380;48.312;9.246;2023-01-25T19:48:54;94002.50;;;-3.28;100.00
71057;BME280;58380;48.312;9.246;2023-01-25T19:51:34;94093.88;;;-2.65;100.00
71057;BME280;58380;48.312;9.246;2023-01-25T19:54:05;94050.38;;;-3.00;100.00
71057;BME280;58380;48.312;9.246;2023-01-25T19:56:36;94038.09;;;-2.98;100.00
71057;BME280;58380;48.312;9.246;2023-01-25T19:59:05;94036.31;;;-2.98;100.00
71057;BME280;58380;48.312;9.246;2023-01-25T20:01:33;94083.53;;;-2.65;100.00
71057;BME280;58380;48.312;9.246;2023-01-25T20:04:07;94065.78;;;-2.68;100.00
71057;BME280;58380;48.312;9.246;2023-01-25T20:06:34;93954.13;;;-3.34;100.00
71057;BME280;58380;48.312;9.246;2023-01-25T20:09:00;94059.53;;;-2.82;100.00
71057;BME280;58380;48.312;9.246;2023-01-25T20:11:27;94053.88;;;-2.77;100.00
71057;BME280;58380;48.312;9.246;2023-01-25T20:13:57;94060.94;;;-2.63;100.00
71057;BME280;58380;48.312;9.246;2023-01-25T20:16:24;94070.31;;;-2.62;100.00
71057;BME280;58380;48.312;9.246;2023-01-25T20:18:51;94026.75;;;-2.81;100.00
71057;BME280;58380;48.312;9.246;2023-01-25T20:21:20;94016.63;;;-2.91;100.00
71057;BME280;58380;48.312;9.246;2023-01-25T20:23:50;93996.41;;;-2.87;100.00
71057;BME280;58380;48.312;9.246;2023-01-25T20:26:24;94056.69;;;-2.47;100.00
71057;BME280;58380;48.312;9.246;2023-01-25T20:28:58;94065.25;;;-2.47;100.00
71057;BME280;58380;48.312;9.246;2023-01-25T20:31:26;94030.91;;;-2.64;100.00
71057;BME280;58380;48.312;9.246;2023-01-25T20:33:55;94028.16;;;-2.62;100.00
71057;BME280;58380;48.312;9.246;2023-01-25T20:36:22;94024.09;;;-2.56;100.00
71057;BME280;58380;48.312;9.246;2023-01-25T20:38:49;94025.25;;;-2.59;100.00
71057;BME280;58380;48.312;9.246;2023-01-25T20:41:16;94044.06;;;-2.42;100.00
71057;BME280;58380;48.312;9.246;2023-01-25T20:43:47;94026.69;;;-2.56;100.00
71057;BME280;58380;48.312;9.246;2023-01-25T20:46:14;94010.22;;;-2.64;100.00
71057;BME280;58380;48.312;9.246;2023-01-25T20:48:41;94019.88;;;-2.57;100.00
71057;BME280;58380;48.312;9.246;2023-01-25T20:51:08;94018.28;;;-2.58;100.00
71057;BME280;58380;48.312;9.246;2023-01-25T20:53:39;94020.34;;;-2.46;100.00
71057;BME280;58380;48.312;9.246;2023-01-25T20:56:06;94016.94;;;-2.46;100.00
71057;BME280;58380;48.312;9.246;2023-01-25T20:58:32;94013.72;;;-2.48;100.00
71057;BME280;58380;48.312;9.246;2023-01-25T21:00:57;94012.41;;;-2.44;100.00
71057;BME280;58380;48.312;9.246;2023-01-25T21:03:23;94023.50;;;-2.35;100.00
71057;BME280;58380;48.312;9.246;2023-01-25T21:05:50;93974.41;;;-2.67;100.00
71057;BME280;58380;48.312;9.246;2023-01-25T21:08:20;93988.72;;;-2.56;100.00
71057;BME280;58380;48.312;9.246;2023-01-25T21:13:14;94029.19;;;-2.40;100.00
71057;BME280;58380;48.312;9.246;2023-01-25T21:15:40;94006.56;;;-2.38;100.00
